Ana Sayfa
METAR-TAF:

METAR-TAF

Havaalanları :

Winchester Regional Airport

Winchester, Virginia, Amerika Birleşik Devletleri

Enlem: 39-09N, Boylam: 078-09W, yükseklik: 222 m

Güncel hava durumu gözlemi

Rapor saat 13:55 UTC de 28 dakika önce yapıldı.
Rüzgar güney/güneybatıdan 7 kt ve 14 kt'a kadar ani rüzgarlar
Sıcaklık 20°C
Nem 73%
Basınç 1013 hPa
Görüş mesafesi: 16.1 km
10000 ft yükseklikte parçalı bulutlu

METAR: KOKV 281355Z AUTO 21007G14KT 10SM SCT100 20/15 A2990 RMK AO2 LTG DSNT NE AND W

Saat: 10:23 (14:23 UTC)


TAF: eksik

4.000'den fazla havaalanı için hava durumu gözlemleri ve tahminleri (METAR ve TAF raporları).

Kullanılabilir istasyonlar harita üzerinde sarı ve kırmızı noktalarla gösterilir.

İstasyonun adını görmek için fareyi noktanın üzerinde gezdirin.

Sonrasında hava gözlem ve tahminlerini görmek için tıklayın.

Haritayı değiştirmek için: yaklaştırmak için siyah artı işaretli yeşil düğmeye ve uzaklaştırmak için de eksi işaretli düğmeye hızla tıklayın; bitişik haritalar için yeşil okları kullanın.


METAR-TAF: